createdAt,value
2023-05-14T00:00:57.815Z,102424.03
2023-05-14T00:03:25.923Z,102420.59
2023-05-14T00:05:53.576Z,102414.44
2023-05-14T00:08:21.462Z,102410.09
2023-05-14T00:10:49.278Z,102423.13
2023-05-14T00:13:16.993Z,102428.31
2023-05-14T00:15:46.558Z,102426.59
2023-05-14T00:18:14.287Z,102424.94
2023-05-14T00:20:42.122Z,102419.91
2023-05-14T00:23:09.954Z,102419.84
2023-05-14T00:25:37.729Z,102419.97
2023-05-14T00:28:05.636Z,102425.06
2023-05-14T00:30:35.366Z,102425.97
2023-05-14T00:33:05.810Z,102421.69
2023-05-14T00:35:35.430Z,102419.97
2023-05-14T00:38:03.487Z,102419.97
2023-05-14T00:40:31.233Z,102417.41
2023-05-14T00:42:58.943Z,102423.41
2023-05-14T00:45:26.820Z,102426.84
2023-05-14T00:47:57.189Z,102422.56
2023-05-14T00:50:26.788Z,102420.00
2023-05-14T00:52:54.589Z,102425.13
2023-05-14T00:55:22.962Z,102424.28
2023-05-14T00:57:51.498Z,102429.44
2023-05-14T01:00:19.434Z,102427.72
2023-05-14T01:02:47.282Z,102428.59
2023-05-14T01:05:15.294Z,102432.84
2023-05-14T01:07:48.161Z,102425.16
2023-05-14T01:10:18.657Z,102426.00
2023-05-14T01:12:49.028Z,102429.41
2023-05-14T01:15:22.246Z,102414.88
2023-05-14T01:17:53.200Z,102417.44
2023-05-14T01:20:21.271Z,102425.13
2023-05-14T01:22:50.574Z,102423.44
2023-05-14T01:25:18.509Z,102420.00
2023-05-14T01:27:50.626Z,102419.16
2023-05-14T01:30:20.848Z,102419.13
2023-05-14T01:32:50.026Z,102417.41
2023-05-14T01:35:19.367Z,102420.84
2023-05-14T01:37:48.340Z,102415.72
2023-05-14T01:40:17.528Z,102414.88
2023-05-14T01:42:45.751Z,102415.72
2023-05-14T01:45:13.476Z,102410.59
2023-05-14T01:47:41.247Z,102413.13
2023-05-14T01:50:09.199Z,102419.13
2023-05-14T01:52:36.897Z,102422.53
2023-05-14T01:55:05.230Z,102423.34
2023-05-14T01:57:34.316Z,102424.19
2023-05-14T02:00:02.028Z,102419.91
2023-05-14T02:02:29.907Z,102425.09
2023-05-14T02:04:57.660Z,102412.25
2023-05-14T02:07:25.416Z,102423.34
2023-05-14T02:09:53.236Z,102419.06
2023-05-14T02:12:21.240Z,102417.31
2023-05-14T02:14:50.568Z,102426.00
2023-05-14T02:17:18.425Z,102419.94
2023-05-14T02:19:46.302Z,102422.47
2023-05-14T02:22:14.223Z,102424.97
2023-05-14T02:24:42.746Z,102424.97
2023-05-14T02:27:12.773Z,102421.53
2023-05-14T02:29:40.599Z,102418.97
2023-05-14T02:32:10.144Z,102421.56
2023-05-14T02:34:38.744Z,102423.28
2023-05-14T02:37:07.854Z,102418.13
2023-05-14T02:39:35.625Z,102421.56
2023-05-14T02:42:05.266Z,102419.84
2023-05-14T02:44:32.958Z,102429.31
2023-05-14T02:47:00.791Z,102428.50
2023-05-14T02:49:29.903Z,102425.88
2023-05-14T02:51:57.717Z,102433.56
2023-05-14T02:54:25.533Z,102429.28
2023-05-14T02:56:53.279Z,102432.75
2023-05-14T02:59:20.939Z,102432.75
2023-05-14T03:01:49.312Z,102427.66
2023-05-14T03:04:17.759Z,102435.38
2023-05-14T03:06:46.847Z,102431.13
2023-05-14T03:09:14.696Z,102426.81
2023-05-14T03:11:42.381Z,102429.44
2023-05-14T03:14:10.105Z,102428.56
2023-05-14T03:16:38.128Z,102427.72
2023-05-14T03:19:05.902Z,102431.16
2023-05-14T03:21:33.785Z,102426.88
2023-05-14T03:24:03.010Z,102428.59
2023-05-14T03:26:31.037Z,102424.28
2023-05-14T03:28:58.861Z,102414.03
2023-05-14T03:31:26.766Z,102414.84
2023-05-14T03:33:54.585Z,102414.00
2023-05-14T03:36:22.359Z,102417.41
2023-05-14T03:38:50.181Z,102418.22
2023-05-14T03:41:20.057Z,102423.34
2023-05-14T03:43:47.951Z,102419.00
2023-05-14T03:46:15.887Z,102413.81
2023-05-14T03:48:43.748Z,102421.50
2023-05-14T03:51:11.593Z,102418.91
2023-05-14T03:53:39.413Z,102415.44
2023-05-14T03:56:07.166Z,102413.59
2023-05-14T03:58:36.196Z,102409.19
2023-05-14T04:01:06.496Z,102411.53
2023-05-14T04:03:34.403Z,102408.88
2023-05-14T04:06:04.208Z,102401.06
2023-05-14T04:08:32.000Z,102399.03
2023-05-14T04:10:59.741Z,102402.22
2023-05-14T04:13:27.517Z,102394.38
2023-05-14T04:15:56.652Z,102393.34
2023-05-14T04:18:24.369Z,102368.41
2023-05-14T04:20:52.177Z,102380.91
2023-05-14T04:23:20.043Z,102385.94
2023-05-14T04:25:47.770Z,102382.28
2023-05-14T04:28:15.635Z,102382.81
2023-05-14T04:30:43.605Z,102382.50
2023-05-14T04:33:12.668Z,102383.59
2023-05-14T04:35:40.366Z,102373.88
2023-05-14T04:38:10.102Z,102378.84
2023-05-14T04:40:37.782Z,102372.50
2023-05-14T04:43:05.488Z,102383.28
2023-05-14T04:45:34.290Z,102376.66
2023-05-14T04:48:02.305Z,102374.34
2023-05-14T04:50:33.988Z,102368.53
2023-05-14T04:53:03.205Z,102370.78
2023-05-14T04:55:33.203Z,102363.31
2023-05-14T04:58:00.980Z,102367.00
2023-05-14T05:00:30.150Z,102363.00
2023-05-14T05:02:58.052Z,102360.78
2023-05-14T05:05:25.912Z,102364.69
2023-05-14T05:07:55.184Z,102366.72
2023-05-14T05:10:23.301Z,102362.13
2023-05-14T05:12:51.178Z,102361.53
2023-05-14T05:15:19.064Z,102363.03
2023-05-14T05:17:47.025Z,102355.97
2023-05-14T05:20:17.638Z,102350.06
2023-05-14T05:22:45.379Z,102358.22
2023-05-14T05:25:14.508Z,102355.84
2023-05-14T05:27:42.327Z,102351.63
2023-05-14T05:30:10.427Z,102358.50
2023-05-14T05:32:38.419Z,102351.91
2023-05-14T05:35:06.598Z,102340.41
2023-05-14T05:37:37.270Z,102341.38
2023-05-14T05:40:06.070Z,102344.25
2023-05-14T05:42:35.275Z,102339.59
2023-05-14T05:45:03.005Z,102340.53
2023-05-14T05:47:31.030Z,102341.66
2023-05-14T05:49:58.980Z,102344.34
2023-05-14T05:52:26.878Z,102335.00
2023-05-14T05:54:54.617Z,102332.28
2023-05-14T05:57:25.689Z,102343.09
2023-05-14T05:59:55.514Z,102340.00
2023-05-14T06:02:23.446Z,102339.22
2023-05-14T06:04:51.245Z,102331.69
2023-05-14T06:07:19.030Z,102338.63
2023-05-14T06:09:46.921Z,102335.13
2023-05-14T06:12:14.625Z,102337.81
2023-05-14T06:14:42.464Z,102338.16
2023-05-14T06:17:11.958Z,102334.78
2023-05-14T06:19:39.608Z,102337.56
2023-05-14T06:22:07.318Z,102338.41
2023-05-14T06:24:35.066Z,102341.13
2023-05-14T06:27:02.846Z,102342.16
2023-05-14T06:29:30.643Z,102337.19
2023-05-14T06:32:03.812Z,102335.41
2023-05-14T06:34:33.038Z,102343.84
2023-05-14T06:37:02.833Z,102341.25
2023-05-14T06:39:30.655Z,102329.59
2023-05-14T06:41:58.512Z,102337.28
2023-05-14T06:44:26.201Z,102341.72
2023-05-14T06:46:53.868Z,102338.47
2023-05-14T06:49:21.816Z,102335.63
2023-05-14T06:51:50.937Z,102332.03
2023-05-14T06:54:20.467Z,102334.47
2023-05-14T06:56:48.224Z,102336.81
2023-05-14T06:59:16.199Z,102336.50
2023-05-14T07:01:44.116Z,102334.91
2023-05-14T07:04:14.391Z,102338.22
2023-05-14T07:06:42.236Z,102336.59
2023-05-14T07:09:14.827Z,102329.38
2023-05-14T07:11:42.700Z,102337.56
2023-05-14T07:14:10.660Z,102332.28
2023-05-14T07:16:38.453Z,102326.44
2023-05-14T07:19:06.227Z,102329.94
2023-05-14T07:21:34.087Z,102333.25
2023-05-14T07:24:02.090Z,102325.91
2023-05-14T07:26:31.603Z,102331.53
2023-05-14T07:28:59.373Z,102325.84
2023-05-14T07:31:27.054Z,102323.00
2023-05-14T07:33:57.808Z,102314.59
2023-05-14T07:36:25.996Z,102320.00
2023-05-14T07:38:53.779Z,102315.09
2023-05-14T07:41:21.853Z,102312.16
2023-05-14T07:43:51.005Z,102307.94
2023-05-14T07:46:18.648Z,102304.47
2023-05-14T07:48:46.516Z,102315.41
2023-05-14T07:51:14.258Z,102313.03
2023-05-14T07:53:41.909Z,102308.13
2023-05-14T07:56:09.870Z,102301.06
2023-05-14T07:58:37.664Z,102303.94
2023-05-14T08:01:11.850Z,102304.56
2023-05-14T08:03:41.281Z,102304.13
2023-05-14T08:06:09.194Z,102305.09
2023-05-14T08:08:36.886Z,102298.94
2023-05-14T08:11:05.036Z,102300.47
2023-05-14T08:13:37.827Z,102303.75
2023-05-14T08:16:07.499Z,102294.03
2023-05-14T08:18:35.300Z,102297.06
2023-05-14T08:21:03.809Z,102286.84
2023-05-14T08:23:31.654Z,102289.50
2023-05-14T08:25:59.920Z,102291.88
2023-05-14T08:28:27.630Z,102284.31
2023-05-14T08:30:55.396Z,102290.78
2023-05-14T08:33:24.534Z,102283.44
2023-05-14T08:35:54.271Z,102282.03
2023-05-14T08:38:22.049Z,102275.25
2023-05-14T08:40:50.658Z,102280.63
2023-05-14T08:43:21.205Z,102280.03
2023-05-14T08:45:50.895Z,102277.53
2023-05-14T08:48:20.678Z,102272.47
2023-05-14T08:50:50.101Z,102266.25
2023-05-14T08:53:17.835Z,102271.09
2023-05-14T08:55:46.775Z,102271.34
2023-05-14T08:58:14.691Z,102242.88
2023-05-14T09:00:42.459Z,102268.72
2023-05-14T09:03:11.535Z,102268.66
2023-05-14T09:05:39.636Z,102265.72
2023-05-14T09:08:08.752Z,102265.38
2023-05-14T09:10:36.438Z,102260.78
2023-05-14T09:13:04.351Z,102266.91
2023-05-14T09:15:32.470Z,102264.78
2023-05-14T09:18:00.359Z,102256.03
2023-05-14T09:20:28.677Z,102252.84
2023-05-14T09:22:56.748Z,102250.34
2023-05-14T09:25:29.044Z,102248.56
2023-05-14T09:27:58.806Z,102250.50
2023-05-14T09:30:27.268Z,102242.06
2023-05-14T09:32:55.764Z,102237.47
2023-05-14T09:35:24.475Z,102239.66
2023-05-14T09:37:52.937Z,102237.16
2023-05-14T09:40:21.663Z,102239.47
2023-05-14T09:42:50.933Z,102237.69
2023-05-14T09:45:18.878Z,102228.22
2023-05-14T09:47:46.761Z,102234.06
2023-05-14T09:50:14.852Z,102228.75
2023-05-14T09:52:42.654Z,102228.28
2023-05-14T09:55:10.683Z,102229.31
2023-05-14T09:57:38.443Z,102230.47
2023-05-14T10:00:09.590Z,102239.03
2023-05-14T10:02:38.901Z,102220.00
2023-05-14T10:05:07.364Z,102215.97
2023-05-14T10:07:38.057Z,102218.94
2023-05-14T10:10:08.491Z,102218.41
2023-05-14T10:12:38.134Z,102226.31
2023-05-14T10:15:10.706Z,102217.72
2023-05-14T10:17:39.991Z,102212.47
2023-05-14T10:20:09.471Z,102211.13
2023-05-14T10:22:37.326Z,102213.56
2023-05-14T10:25:05.929Z,102210.31
2023-05-14T10:27:33.756Z,102203.94
2023-05-14T10:30:01.436Z,102198.59
2023-05-14T10:32:37.929Z,102197.16
2023-05-14T10:35:16.615Z,102198.84
2023-05-14T10:37:45.297Z,102205.16
2023-05-14T10:40:13.567Z,102199.09
2023-05-14T10:42:43.471Z,102192.47
2023-05-14T10:45:12.261Z,102181.41
2023-05-14T10:47:42.909Z,102195.72
2023-05-14T10:50:12.108Z,102196.34
2023-05-14T10:52:41.608Z,102175.94
2023-05-14T10:55:10.250Z,102181.50
2023-05-14T10:57:39.543Z,102179.13
2023-05-14T11:00:09.003Z,102176.53
2023-05-14T11:02:38.033Z,102171.84
2023-05-14T11:05:08.598Z,102158.97
2023-05-14T11:07:37.425Z,102174.63
2023-05-14T11:10:06.111Z,102174.28
2023-05-14T11:12:34.231Z,102178.97
2023-05-14T11:15:02.525Z,102165.78
2023-05-14T11:17:30.820Z,102173.38
2023-05-14T11:19:58.894Z,102158.78
2023-05-14T11:22:28.590Z,102146.41
2023-05-14T11:24:58.595Z,102151.75
2023-05-14T11:27:26.378Z,102148.91
2023-05-14T11:29:55.934Z,102150.56
2023-05-14T11:32:23.822Z,102140.50
2023-05-14T11:34:51.900Z,102150.16
2023-05-14T11:37:19.710Z,102144.06
2023-05-14T11:39:50.013Z,102145.72
2023-05-14T11:42:19.557Z,102154.16
2023-05-14T11:44:49.071Z,102144.28
2023-05-14T11:47:17.156Z,102148.59
2023-05-14T11:49:44.976Z,102148.28
2023-05-14T11:52:14.317Z,102138.84
2023-05-14T11:54:42.692Z,102138.81
2023-05-14T11:57:12.644Z,102143.22
2023-05-14T11:59:41.130Z,102134.88
2023-05-14T12:02:11.274Z,102132.59
2023-05-14T12:04:39.040Z,102129.97
2023-05-14T12:07:09.348Z,102134.00
2023-05-14T12:09:38.878Z,102124.66
2023-05-14T12:12:09.916Z,102127.25
2023-05-14T12:14:41.667Z,102115.81
2023-05-14T12:17:12.434Z,102119.53
2023-05-14T12:19:41.840Z,102124.88
2023-05-14T12:22:09.845Z,102122.16
2023-05-14T12:24:39.156Z,102127.25
2023-05-14T12:27:08.147Z,102126.19
2023-05-14T12:29:40.341Z,102127.25
2023-05-14T12:32:11.097Z,102119.34
2023-05-14T12:34:39.221Z,102122.94
2023-05-14T12:37:07.088Z,102110.28
2023-05-14T12:39:35.794Z,102112.88
2023-05-14T12:42:03.505Z,102113.06
2023-05-14T12:44:31.338Z,102112.84
2023-05-14T12:47:00.511Z,102109.88
2023-05-14T12:49:28.311Z,102113.47
2023-05-14T12:52:07.673Z,102104.66
2023-05-14T12:54:43.806Z,102103.09
2023-05-14T12:57:11.712Z,102102.78
2023-05-14T12:59:39.487Z,102101.66
2023-05-14T13:02:08.859Z,102098.56
2023-05-14T13:04:37.411Z,102088.97
2023-05-14T13:07:05.295Z,102088.84
2023-05-14T13:09:33.031Z,102078.81
2023-05-14T13:12:00.798Z,102085.94
2023-05-14T13:14:28.470Z,102088.16
2023-05-14T13:16:56.357Z,102073.38
2023-05-14T13:19:25.679Z,102066.94
2023-05-14T13:21:53.383Z,102064.69
2023-05-14T13:24:21.123Z,102069.81
2023-05-14T13:26:49.044Z,102065.41
2023-05-14T13:29:16.821Z,102066.66
2023-05-14T13:31:44.554Z,102067.34
2023-05-14T13:34:13.187Z,102062.59
2023-05-14T13:36:43.651Z,102073.81
2023-05-14T13:39:13.584Z,102064.72
2023-05-14T13:41:42.076Z,102061.91
2023-05-14T13:44:09.760Z,102065.13
2023-05-14T13:46:37.459Z,102059.69
2023-05-14T13:49:06.907Z,102050.03
2023-05-14T13:51:34.781Z,102054.81
2023-05-14T13:54:04.011Z,102054.06
2023-05-14T13:56:31.862Z,102055.31
2023-05-14T13:58:59.552Z,102049.06
2023-05-14T14:01:27.405Z,102043.09
2023-05-14T14:03:55.316Z,102055.91
2023-05-14T14:06:22.955Z,102060.56
2023-05-14T14:08:50.642Z,102054.38
2023-05-14T14:11:19.857Z,102053.44
2023-05-14T14:13:47.676Z,102050.97
2023-05-14T14:16:15.985Z,102041.13
2023-05-14T14:18:44.006Z,102045.16
2023-05-14T14:21:12.022Z,102033.94
2023-05-14T14:23:39.734Z,102033.94
2023-05-14T14:26:07.460Z,102035.28
2023-05-14T14:28:37.031Z,102031.78
2023-05-14T14:31:05.049Z,102033.94
2023-05-14T14:33:32.812Z,102023.44
2023-05-14T14:36:00.736Z,102024.59
2023-05-14T14:38:28.581Z,102030.13
2023-05-14T14:40:56.389Z,102022.97
2023-05-14T14:43:24.252Z,102025.44
2023-05-14T14:45:53.368Z,102025.41
2023-05-14T14:48:24.472Z,102021.50
2023-05-14T14:50:52.819Z,102025.53
2023-05-14T14:53:20.850Z,102020.63
2023-05-14T14:55:48.584Z,102030.31
2023-05-14T14:58:16.402Z,102022.94
2023-05-14T15:00:45.613Z,102024.16
2023-05-14T15:03:15.059Z,102019.41
2023-05-14T15:05:43.055Z,102020.03
2023-05-14T15:08:10.898Z,102019.69
2023-05-14T15:10:38.818Z,102013.88
2023-05-14T15:13:07.300Z,102011.66
2023-05-14T15:15:35.578Z,102007.59
2023-05-14T15:18:03.582Z,102012.78
2023-05-14T15:20:32.864Z,102007.19
2023-05-14T15:23:00.916Z,102007.97
2023-05-14T15:25:28.600Z,102002.66
2023-05-14T15:27:56.336Z,101996.88
2023-05-14T15:30:24.224Z,101993.19
2023-05-14T15:32:52.347Z,101992.16
2023-05-14T15:35:20.265Z,101984.66
2023-05-14T15:37:49.392Z,101991.63
2023-05-14T15:40:17.317Z,101992.91
2023-05-14T15:42:45.171Z,101987.25
2023-05-14T15:45:13.714Z,101991.66
2023-05-14T15:47:41.853Z,101995.81
2023-05-14T15:50:09.875Z,101988.19
2023-05-14T15:52:39.098Z,101991.16
2023-05-14T15:55:08.716Z,101988.16
2023-05-14T15:57:36.493Z,101983.22
2023-05-14T16:00:10.124Z,101986.25
2023-05-14T16:02:39.962Z,101988.97
2023-05-14T16:05:08.460Z,101987.34
2023-05-14T16:07:36.776Z,101979.72
2023-05-14T16:10:04.982Z,101979.81
2023-05-14T16:12:34.224Z,101977.78
2023-05-14T16:15:02.018Z,101974.19
2023-05-14T16:17:31.583Z,101966.94
2023-05-14T16:20:01.601Z,101967.41
2023-05-14T16:22:31.963Z,101962.72
2023-05-14T16:25:01.833Z,101961.50
2023-05-14T16:27:30.941Z,101961.84
2023-05-14T16:30:00.225Z,101961.69
2023-05-14T16:32:28.182Z,101941.28
2023-05-14T16:34:56.607Z,101948.78
2023-05-14T16:37:24.380Z,101946.16
2023-05-14T16:39:52.032Z,101944.06
2023-05-14T16:42:19.978Z,101948.72
2023-05-14T16:44:47.721Z,101958.84
2023-05-14T16:47:16.846Z,101949.50
2023-05-14T16:49:44.727Z,101952.16
2023-05-14T16:52:12.429Z,101950.13
2023-05-14T16:54:40.114Z,101945.28
2023-05-14T16:57:07.862Z,101946.63
2023-05-14T16:59:35.734Z,101942.97
2023-05-14T17:02:03.520Z,101944.44
2023-05-14T17:04:38.708Z,101947.00
2023-05-14T17:07:06.664Z,101945.09
2023-05-14T17:09:34.565Z,101946.59
2023-05-14T17:12:02.244Z,101941.47
2023-05-14T17:14:29.958Z,101950.63
2023-05-14T17:16:57.940Z,101944.47
2023-05-14T17:19:25.622Z,101946.22
2023-05-14T17:21:54.690Z,101941.28
2023-05-14T17:24:22.496Z,101939.09
2023-05-14T17:26:50.237Z,101941.91
2023-05-14T17:29:17.967Z,101939.50
2023-05-14T17:31:45.968Z,101948.28
2023-05-14T17:34:13.731Z,101947.31
2023-05-14T17:36:41.526Z,101948.38
2023-05-14T17:39:10.627Z,101949.47
2023-05-14T17:41:38.382Z,101948.19
2023-05-14T17:44:06.265Z,101951.28
2023-05-14T17:46:34.588Z,101950.56
2023-05-14T17:49:02.337Z,101944.31
2023-05-14T17:51:30.036Z,101946.31
2023-05-14T17:53:57.700Z,101950.16
2023-05-14T17:56:26.872Z,101945.06
2023-05-14T18:01:25.108Z,101951.78
2023-05-14T18:03:53.188Z,101962.75
2023-05-14T18:06:21.075Z,101955.13
2023-05-14T18:08:48.872Z,101958.66
2023-05-14T18:11:16.676Z,101962.88
2023-05-14T18:13:45.737Z,101958.91
2023-05-14T18:16:13.524Z,101957.00
2023-05-14T18:18:41.447Z,101957.13
2023-05-14T18:21:09.191Z,101961.94
2023-05-14T18:23:37.014Z,101959.69
2023-05-14T18:26:04.709Z,101959.16
2023-05-14T18:28:32.427Z,101966.66
2023-05-14T18:31:01.870Z,101963.88
2023-05-14T18:33:29.607Z,101966.38
2023-05-14T18:35:57.369Z,101972.03
2023-05-14T18:38:25.240Z,101965.38
2023-05-14T18:40:52.928Z,101970.25
2023-05-14T18:43:20.658Z,101972.09
2023-05-14T18:45:48.558Z,101975.94
2023-05-14T18:48:17.621Z,101978.31
2023-05-14T18:50:45.338Z,101974.09
2023-05-14T18:53:13.158Z,101981.00
2023-05-14T18:55:40.880Z,101979.91
2023-05-14T18:58:09.058Z,101980.94
2023-05-14T19:00:36.903Z,101978.84
2023-05-14T19:03:04.750Z,101979.41
2023-05-14T19:05:33.989Z,101981.59
2023-05-14T19:08:02.072Z,101972.91
2023-05-14T19:10:29.783Z,101970.63
2023-05-14T19:12:57.705Z,101983.88
2023-05-14T19:15:25.894Z,101982.97
2023-05-14T19:17:54.212Z,101978.03
2023-05-14T19:20:22.006Z,101975.63
2023-05-14T19:22:51.253Z,101988.19
2023-05-14T19:25:18.938Z,101978.81
2023-05-14T19:27:50.632Z,101979.88
2023-05-14T19:30:18.592Z,101975.47
2023-05-14T19:32:46.453Z,101980.88
2023-05-14T19:35:14.229Z,101973.34
2023-05-14T19:37:42.099Z,101970.25
2023-05-14T19:40:11.776Z,101971.69
2023-05-14T19:42:41.482Z,101983.25
2023-05-14T19:45:10.241Z,101979.25
2023-05-14T19:47:37.975Z,101976.66
2023-05-14T19:50:06.053Z,101976.66
2023-05-14T19:52:33.826Z,101975.34
2023-05-14T19:55:01.486Z,101971.88
2023-05-14T19:57:30.623Z,101978.31
2023-05-14T19:59:58.413Z,101969.00
2023-05-14T20:02:26.677Z,101976.88
2023-05-14T20:04:56.648Z,101971.50
2023-05-14T20:07:33.631Z,101977.56
2023-05-14T20:10:01.416Z,101975.34
2023-05-14T20:12:30.645Z,101975.84
2023-05-14T20:14:58.477Z,101980.06
2023-05-14T20:17:26.321Z,101980.13
2023-05-14T20:19:54.017Z,101983.16
2023-05-14T20:22:21.895Z,101985.72
2023-05-14T20:24:49.686Z,101982.53
2023-05-14T20:27:17.440Z,101981.47
2023-05-14T20:29:47.550Z,101984.38
2023-05-14T20:32:15.674Z,101978.66
2023-05-14T20:34:43.370Z,101973.81
2023-05-14T20:37:11.136Z,101973.94
2023-05-14T20:39:38.839Z,101969.59
2023-05-14T20:42:07.178Z,101967.56
2023-05-14T20:44:34.974Z,101966.63
2023-05-14T20:47:04.142Z,101966.56
2023-05-14T20:49:31.793Z,101973.19
2023-05-14T20:51:59.628Z,101966.25
2023-05-14T20:54:27.450Z,101968.22
2023-05-14T20:56:55.141Z,101971.91
2023-05-14T20:59:22.976Z,101969.00
2023-05-14T21:01:50.938Z,101968.66
2023-05-14T21:04:20.480Z,101971.00
2023-05-14T21:06:48.442Z,101970.69
2023-05-14T21:09:16.149Z,101974.31
2023-05-14T21:11:44.381Z,101974.28
2023-05-14T21:14:12.366Z,101971.84
2023-05-14T21:16:40.373Z,101967.44
2023-05-14T21:19:08.316Z,101978.38
2023-05-14T21:21:37.581Z,101975.88
2023-05-14T21:24:05.651Z,101974.88
2023-05-14T21:26:33.986Z,101975.75
2023-05-14T21:29:01.751Z,101973.34
2023-05-14T21:31:29.632Z,101968.09
2023-05-14T21:33:57.411Z,101964.03
2023-05-14T21:36:25.301Z,101967.09
2023-05-14T21:38:54.863Z,101968.25
2023-05-14T21:41:22.479Z,101967.06
2023-05-14T21:43:50.154Z,101962.84
2023-05-14T21:46:18.138Z,101959.28
2023-05-14T21:48:45.940Z,101960.44
2023-05-14T21:51:13.678Z,101955.53
2023-05-14T21:53:41.557Z,101950.03
2023-05-14T21:56:10.653Z,101954.44
2023-05-14T21:58:38.313Z,101960.25
2023-05-14T22:01:06.085Z,101962.31
2023-05-14T22:03:33.841Z,101955.50
2023-05-14T22:06:01.714Z,101956.09
2023-05-14T22:08:30.788Z,101951.03
2023-05-14T22:10:58.449Z,101952.00
2023-05-14T22:13:27.526Z,101949.06
2023-05-14T22:16:05.304Z,101946.84
2023-05-14T22:18:40.449Z,101948.56
2023-05-14T22:21:08.235Z,101954.41
2023-05-14T22:23:36.179Z,101953.19
2023-05-14T22:26:03.967Z,101952.94
2023-05-14T22:28:33.164Z,101940.63
2023-05-14T22:31:00.945Z,101954.22
2023-05-14T22:33:28.698Z,101955.97
2023-05-14T22:35:56.591Z,101949.69
2023-05-14T22:38:24.291Z,101953.69
2023-05-14T22:40:52.103Z,101949.72
2023-05-14T22:43:19.779Z,101948.44
2023-05-14T22:45:48.893Z,101945.22
2023-05-14T22:48:16.832Z,101944.28
2023-05-14T22:50:44.492Z,101946.31
2023-05-14T22:53:12.116Z,101947.97
2023-05-14T22:55:40.026Z,101939.22
2023-05-14T22:58:08.365Z,101941.75
2023-05-14T23:00:36.111Z,101938.97
2023-05-14T23:03:05.461Z,101933.75
2023-05-14T23:05:33.185Z,101927.09
2023-05-14T23:08:00.914Z,101933.41
2023-05-14T23:10:29.013Z,101928.06
2023-05-14T23:12:56.814Z,101927.59
2023-05-14T23:15:24.613Z,101916.66
2023-05-14T23:17:52.614Z,101917.00
2023-05-14T23:20:21.786Z,101920.59
2023-05-14T23:22:49.408Z,101911.09
2023-05-14T23:25:17.329Z,101910.72
2023-05-14T23:27:45.183Z,101904.31
2023-05-14T23:30:13.318Z,101903.53
2023-05-14T23:32:40.977Z,101908.81
2023-05-14T23:35:09.037Z,101904.63
2023-05-14T23:37:42.604Z,101900.31
2023-05-14T23:40:10.679Z,101901.16
2023-05-14T23:42:38.323Z,101891.22
2023-05-14T23:45:06.408Z,101888.00
2023-05-14T23:47:36.730Z,101894.78
2023-05-14T23:50:04.691Z,101890.72
2023-05-14T23:52:32.427Z,101885.78
2023-05-14T23:55:01.730Z,101885.44
2023-05-14T23:57:29.681Z,101882.50
2023-05-14T23:59:57.601Z,101875.78
